createdAt,value
2022-10-19T00:00:55.350Z,100600.72
2022-10-19T00:04:06.296Z,100589.13
2022-10-19T00:07:11.034Z,100585.39
2022-10-19T00:10:16.344Z,100583.11
2022-10-19T00:13:24.636Z,100581.22
2022-10-19T00:16:32.017Z,100567.97
2022-10-19T00:19:40.634Z,100563.78
2022-10-19T00:22:46.260Z,100553.69
2022-10-19T00:25:51.866Z,100552.63
2022-10-19T00:28:59.449Z,100547.97
2022-10-19T00:32:05.676Z,100546.73
2022-10-19T00:35:13.204Z,100545.28
2022-10-19T00:38:19.830Z,100545.48
2022-10-19T00:41:26.288Z,100544.59
2022-10-19T00:44:36.511Z,100539.02
2022-10-19T00:47:43.180Z,100533.45
2022-10-19T00:50:49.111Z,100528.72
2022-10-19T00:53:54.845Z,100528.33
2022-10-19T00:57:01.619Z,100521.69
2022-10-19T01:00:07.941Z,100515.17
2022-10-19T01:03:13.599Z,100509.48
2022-10-19T01:06:19.535Z,100505.47
2022-10-19T01:09:25.375Z,100498.33
2022-10-19T01:12:41.845Z,100498.34
2022-10-19T01:16:08.305Z,100492.27
2022-10-19T01:19:17.946Z,100483.70
2022-10-19T01:22:41.967Z,100476.49
2022-10-19T01:26:05.518Z,100462.31
2022-10-19T01:29:44.804Z,100459.09
2022-10-19T01:33:10.705Z,100450.14
2022-10-19T01:36:40.003Z,100454.37
2022-10-19T01:40:11.199Z,100449.04
2022-10-19T01:43:51.524Z,100447.71
2022-10-19T01:47:05.454Z,100444.55
2022-10-19T01:50:30.548Z,100449.20
2022-10-19T01:53:37.033Z,100451.78
2022-10-19T01:56:42.403Z,100445.24
2022-10-19T01:59:47.753Z,100448.50
2022-10-19T02:02:58.010Z,100436.74
2022-10-19T02:06:03.342Z,100437.19
2022-10-19T02:09:09.844Z,100434.25
2022-10-19T02:12:18.676Z,100435.39
2022-10-19T02:15:27.617Z,100427.96
2022-10-19T02:18:36.176Z,100433.17
2022-10-19T02:21:42.671Z,100433.68
2022-10-19T02:24:48.519Z,100431.62
2022-10-19T02:27:54.347Z,100432.05
2022-10-19T02:31:00.146Z,100422.77
2022-10-19T02:34:05.924Z,100419.48
2022-10-19T02:37:13.031Z,100425.72
2022-10-19T02:40:19.955Z,100422.14
2022-10-19T02:43:29.759Z,100422.25
2022-10-19T02:46:57.209Z,100428.08
2022-10-19T02:50:02.687Z,100420.61
2022-10-19T02:53:08.450Z,100419.32
2022-10-19T02:56:14.498Z,100412.38
2022-10-19T02:59:20.300Z,100412.92
2022-10-19T03:02:25.641Z,100404.70
2022-10-19T03:05:31.437Z,100400.47
2022-10-19T03:08:37.314Z,100401.95
2022-10-19T03:11:43.739Z,100396.45
2022-10-19T03:14:50.299Z,100389.66
2022-10-19T03:17:56.494Z,100382.74
2022-10-19T03:21:01.995Z,100379.23
2022-10-19T03:24:07.401Z,100379.27
2022-10-19T03:27:13.441Z,100374.62
2022-10-19T03:30:21.134Z,100369.03
2022-10-19T03:33:26.542Z,100364.95
2022-10-19T03:36:43.067Z,100356.27
2022-10-19T03:39:47.915Z,100348.87
2022-10-19T03:42:54.319Z,100345.53
2022-10-19T03:46:01.301Z,100331.79
2022-10-19T03:49:06.974Z,100336.23
2022-10-19T03:52:13.228Z,100330.70
2022-10-19T03:55:19.127Z,100328.06
2022-10-19T03:58:24.542Z,100326.53
2022-10-19T04:01:39.799Z,100317.97
2022-10-19T04:04:44.984Z,100310.44
2022-10-19T04:07:50.979Z,100304.92
2022-10-19T04:10:56.734Z,100304.09
2022-10-19T04:14:05.189Z,100296.38
2022-10-19T04:17:11.327Z,100289.09
2022-10-19T04:20:17.811Z,100289.38
2022-10-19T04:23:24.074Z,100278.52
2022-10-19T04:26:29.815Z,100276.16
2022-10-19T04:29:30.849Z,100280.83
2022-10-19T04:32:35.967Z,100277.55
2022-10-19T04:35:42.450Z,100268.91
2022-10-19T04:38:48.822Z,100271.76
2022-10-19T04:41:47.722Z,100273.17
2022-10-19T04:44:54.353Z,100268.80
2022-10-19T04:48:01.459Z,100270.16
2022-10-19T04:51:10.101Z,100263.70
2022-10-19T04:54:17.013Z,100262.90
2022-10-19T04:57:22.545Z,100264.36
2022-10-19T05:00:29.630Z,100257.32
2022-10-19T05:03:35.571Z,100254.89
2022-10-19T05:06:35.461Z,100255.32
2022-10-19T05:09:42.720Z,100247.00
2022-10-19T05:12:49.959Z,100241.86
2022-10-19T05:15:55.586Z,100244.83
2022-10-19T05:19:08.388Z,100241.35
2022-10-19T05:22:13.777Z,100239.86
2022-10-19T05:25:21.457Z,100230.47
2022-10-19T05:28:28.276Z,100236.80
2022-10-19T05:31:27.735Z,100226.66
2022-10-19T05:34:20.989Z,100225.44
2022-10-19T05:37:26.120Z,100224.66
2022-10-19T05:40:31.711Z,100212.98
2022-10-19T05:43:29.405Z,100205.86
2022-10-19T05:46:27.172Z,100204.61
2022-10-19T05:49:34.837Z,100199.78
2022-10-19T05:52:40.268Z,100197.77
2022-10-19T05:55:42.403Z,100184.41
2022-10-19T05:58:48.112Z,100177.77
2022-10-19T06:01:53.927Z,100167.69
2022-10-19T06:04:59.343Z,100162.77
2022-10-19T06:07:59.799Z,100167.70
2022-10-19T06:11:07.642Z,100156.97
2022-10-19T06:14:14.412Z,100158.48
2022-10-19T06:17:20.352Z,100156.76
2022-10-19T06:20:26.850Z,100149.93
2022-10-19T06:23:34.428Z,100152.13
2022-10-19T06:26:40.201Z,100150.58
2022-10-19T06:29:45.253Z,100142.18
2022-10-19T06:32:50.465Z,100145.20
2022-10-19T06:35:55.920Z,100134.37
2022-10-19T06:39:09.972Z,100125.55
2022-10-19T06:42:16.563Z,100119.67
2022-10-19T06:45:30.206Z,100116.16
2022-10-19T06:48:34.926Z,100107.74
2022-10-19T06:51:41.877Z,100105.63
2022-10-19T06:54:48.622Z,100096.33
2022-10-19T06:57:54.373Z,100093.27
2022-10-19T07:00:59.784Z,100097.98
2022-10-19T07:04:06.826Z,100090.26
2022-10-19T07:07:12.792Z,100087.02
2022-10-19T07:10:18.621Z,100085.66
2022-10-19T07:13:24.532Z,100087.30
2022-10-19T07:16:31.311Z,100095.16
2022-10-19T07:19:42.254Z,100087.70
2022-10-19T07:22:48.020Z,100079.79
2022-10-19T07:25:54.263Z,100085.67
2022-10-19T07:29:00.895Z,100083.56
2022-10-19T07:32:07.473Z,100078.02
2022-10-19T07:35:13.349Z,100077.59
2022-10-19T07:38:19.978Z,100070.29
2022-10-19T07:41:29.814Z,100057.00
2022-10-19T07:44:36.932Z,100046.94
2022-10-19T07:47:43.396Z,100044.98
2022-10-19T07:50:51.235Z,100045.07
2022-10-19T07:53:57.312Z,100035.89
2022-10-19T07:57:02.395Z,100030.70
2022-10-19T08:00:08.420Z,100027.08
2022-10-19T08:06:26.302Z,100017.13
2022-10-19T08:09:52.166Z,100008.16
2022-10-19T08:12:39.536Z,100006.74
2022-10-19T08:15:47.285Z,99991.88
2022-10-19T08:18:55.691Z,99980.46
2022-10-19T08:22:02.165Z,99971.42
2022-10-19T08:25:08.506Z,99973.19
2022-10-19T08:28:17.121Z,99962.45
2022-10-19T08:31:35.396Z,99954.57
2022-10-19T08:34:41.910Z,99950.08
2022-10-19T08:37:47.229Z,99954.50
2022-10-19T08:40:53.298Z,99945.89
2022-10-19T08:44:13.523Z,99939.03
2022-10-19T08:48:00.996Z,99935.86
2022-10-19T08:50:59.151Z,99937.50
2022-10-19T08:54:12.306Z,99928.17
2022-10-19T08:57:27.420Z,99921.41
2022-10-19T09:03:57.848Z,99914.98
2022-10-19T09:07:19.733Z,99906.83
2022-10-19T09:10:49.586Z,99898.91
2022-10-19T09:14:05.225Z,99882.27
2022-10-19T09:17:07.323Z,99874.08
2022-10-19T09:20:15.789Z,99875.53
2022-10-19T09:23:46.289Z,99866.56
2022-10-19T09:26:58.372Z,99862.12
2022-10-19T09:30:12.816Z,99852.59
2022-10-19T09:33:18.496Z,99849.98
2022-10-19T09:36:39.218Z,99851.21
2022-10-19T09:39:33.692Z,99847.67
2022-10-19T09:42:46.650Z,99853.20
2022-10-19T09:46:13.860Z,99851.06
2022-10-19T09:49:15.922Z,99836.08
2022-10-19T09:52:44.369Z,99831.58
2022-10-19T09:55:57.714Z,99836.17
2022-10-19T09:59:07.288Z,99835.58
2022-10-19T10:02:31.733Z,99830.55
2022-10-19T10:05:55.422Z,99835.09
2022-10-19T10:09:08.113Z,99838.01
2022-10-19T10:12:15.770Z,99832.17
2022-10-19T10:15:22.615Z,99830.94
2022-10-19T10:18:31.108Z,99813.61
2022-10-19T10:21:42.930Z,99816.56
2022-10-19T10:24:50.236Z,99816.66
2022-10-19T10:27:55.991Z,99820.59
2022-10-19T10:31:02.357Z,99805.20
2022-10-19T10:34:28.402Z,99804.77
2022-10-19T10:37:31.106Z,99797.56
2022-10-19T10:40:43.157Z,99782.80
2022-10-19T10:47:16.343Z,99779.28
2022-10-19T10:50:24.155Z,99772.50
2022-10-19T10:53:54.838Z,99760.44
2022-10-19T10:56:48.447Z,99758.84
2022-10-19T11:00:10.273Z,99756.25
2022-10-19T11:03:23.158Z,99752.22
2022-10-19T11:06:29.582Z,99748.16
2022-10-19T11:09:54.934Z,99752.09
2022-10-19T11:13:08.185Z,99744.83
2022-10-19T11:16:33.483Z,99742.83
2022-10-19T11:19:53.281Z,99736.75
2022-10-19T11:23:19.024Z,99726.84
2022-10-19T11:26:44.087Z,99729.20
2022-10-19T11:30:20.867Z,99718.81
2022-10-19T11:33:58.859Z,99718.89
2022-10-19T11:37:12.415Z,99713.89
2022-10-19T11:41:06.080Z,99712.32
2022-10-19T11:43:58.973Z,99701.36
2022-10-19T11:47:36.933Z,99691.51
2022-10-19T11:51:20.881Z,99691.51
2022-10-19T11:54:44.104Z,99686.50
2022-10-19T11:57:57.021Z,99677.14
2022-10-19T12:01:13.768Z,99676.47
2022-10-19T12:04:50.813Z,99671.00
2022-10-19T12:08:11.021Z,99670.41
2022-10-19T12:11:24.578Z,99670.41
2022-10-19T12:14:38.368Z,99663.59
2022-10-19T12:17:47.326Z,99664.09
2022-10-19T12:21:03.775Z,99669.08
2022-10-19T12:24:09.603Z,99659.33
2022-10-19T12:27:14.795Z,99660.03
2022-10-19T12:30:29.507Z,99657.13
2022-10-19T12:33:36.562Z,99661.94
2022-10-19T12:37:19.341Z,99655.23
2022-10-19T12:40:43.958Z,99652.20
2022-10-19T12:44:12.710Z,99653.19
2022-10-19T12:47:28.435Z,99648.64
2022-10-19T12:50:38.470Z,99655.22
2022-10-19T12:53:51.434Z,99643.67
2022-10-19T12:57:05.253Z,99650.05
2022-10-19T13:00:12.126Z,99643.98
2022-10-19T13:03:26.237Z,99637.89
2022-10-19T13:06:41.791Z,99637.16
2022-10-19T13:09:52.799Z,99633.25
2022-10-19T13:13:00.603Z,99636.74
2022-10-19T13:16:07.252Z,99621.08
2022-10-19T13:19:32.476Z,99625.92
2022-10-19T13:22:43.114Z,99625.48
2022-10-19T13:25:53.121Z,99619.14
2022-10-19T13:29:08.042Z,99609.60
2022-10-19T13:32:34.964Z,99607.84
2022-10-19T13:35:49.487Z,99594.58
2022-10-19T13:39:17.255Z,99593.41
2022-10-19T13:42:40.994Z,99595.41
2022-10-19T13:45:47.772Z,99593.48
2022-10-19T13:49:32.887Z,99584.59
2022-10-19T13:52:45.877Z,99579.63
2022-10-19T13:56:15.087Z,99576.42
2022-10-19T14:00:02.098Z,99578.94
2022-10-19T14:03:40.650Z,99575.72
2022-10-19T14:06:58.885Z,99569.28
2022-10-19T14:10:33.061Z,99566.77
2022-10-19T14:13:36.421Z,99571.98
2022-10-19T14:16:42.612Z,99561.80
2022-10-19T14:19:59.040Z,99571.36
2022-10-19T14:23:05.029Z,99565.41
2022-10-19T14:26:12.993Z,99566.80
2022-10-19T14:29:17.919Z,99559.70
2022-10-19T14:32:25.459Z,99558.90
2022-10-19T14:35:47.813Z,99555.91
2022-10-19T14:38:55.326Z,99551.69
2022-10-19T14:42:03.028Z,99553.86
2022-10-19T14:45:08.896Z,99552.56
2022-10-19T14:48:23.916Z,99547.34
2022-10-19T14:52:05.662Z,99540.02
2022-10-19T14:55:12.776Z,99545.46
2022-10-19T14:58:18.910Z,99552.27
2022-10-19T15:01:24.655Z,99545.68
2022-10-19T15:04:36.199Z,99548.27
2022-10-19T15:07:57.119Z,99556.59
2022-10-19T15:11:02.885Z,99549.67
2022-10-19T15:14:16.375Z,99546.50
2022-10-19T15:17:31.884Z,99544.14
2022-10-19T15:21:08.270Z,99544.20
2022-10-19T15:24:06.128Z,99551.53
2022-10-19T15:27:12.558Z,99543.23
2022-10-19T15:30:35.062Z,99541.88
2022-10-19T15:33:41.070Z,99545.68
2022-10-19T15:36:47.721Z,99542.89
2022-10-19T15:39:53.318Z,99539.45
2022-10-19T15:42:59.315Z,99537.34
2022-10-19T15:46:06.179Z,99539.86
2022-10-19T15:49:18.344Z,99543.74
2022-10-19T15:52:31.705Z,99552.70
2022-10-19T15:55:36.962Z,99564.25
2022-10-19T15:58:41.846Z,99571.13
2022-10-19T16:01:51.115Z,99568.29
2022-10-19T16:04:54.654Z,99565.38
2022-10-19T16:07:59.564Z,99573.41
2022-10-19T16:11:05.944Z,99578.42
2022-10-19T16:14:12.205Z,99573.99
2022-10-19T16:17:18.259Z,99576.52
2022-10-19T16:20:26.760Z,99573.26
2022-10-19T16:23:31.945Z,99568.39
2022-10-19T16:26:39.611Z,99575.36
2022-10-19T16:29:47.603Z,99578.59
2022-10-19T16:32:54.506Z,99573.92
2022-10-19T16:36:00.646Z,99576.31
2022-10-19T16:39:05.958Z,99568.52
2022-10-19T16:42:11.423Z,99576.72
2022-10-19T16:45:11.029Z,99585.44
2022-10-19T16:48:21.845Z,99579.36
2022-10-19T16:51:40.992Z,99582.44
2022-10-19T16:54:47.060Z,99581.24
2022-10-19T16:57:53.676Z,99593.22
2022-10-19T17:01:00.933Z,99590.48
2022-10-19T17:04:07.307Z,99591.70
2022-10-19T17:07:12.596Z,99583.98
2022-10-19T17:10:19.452Z,99580.70
2022-10-19T17:13:25.388Z,99580.08
2022-10-19T17:16:30.974Z,99564.38
2022-10-19T17:19:36.117Z,99571.89
2022-10-19T17:22:43.146Z,99569.58
2022-10-19T17:25:48.578Z,99575.63
2022-10-19T17:28:56.394Z,99565.17
2022-10-19T17:32:01.477Z,99562.64
2022-10-19T17:35:09.915Z,99571.30
2022-10-19T17:38:14.796Z,99576.59
2022-10-19T17:41:30.152Z,99572.88
2022-10-19T17:44:36.951Z,99562.20
2022-10-19T17:47:43.188Z,99564.22
2022-10-19T17:50:49.642Z,99572.97
2022-10-19T17:53:54.677Z,99578.56
2022-10-19T17:57:00.837Z,99576.17
2022-10-19T18:00:09.562Z,99582.68
2022-10-19T18:03:15.876Z,99582.14
2022-10-19T18:06:26.917Z,99580.37
2022-10-19T18:09:32.956Z,99593.71
2022-10-19T18:12:39.331Z,99600.64
2022-10-19T18:15:44.764Z,99607.27
2022-10-19T18:18:52.671Z,99601.47
2022-10-19T18:21:59.943Z,99590.28
2022-10-19T18:25:06.061Z,99600.58
2022-10-19T18:28:13.061Z,99598.82
2022-10-19T18:31:37.597Z,99590.13
2022-10-19T18:34:43.868Z,99605.70
2022-10-19T18:37:43.091Z,99615.17
2022-10-19T18:40:51.760Z,99613.63
2022-10-19T18:43:57.310Z,99621.59
2022-10-19T18:47:03.799Z,99616.81
2022-10-19T18:50:09.749Z,99611.98
2022-10-19T18:53:16.437Z,99598.27
2022-10-19T18:56:24.383Z,99593.80
2022-10-19T18:59:30.173Z,99596.45
2022-10-19T19:02:46.332Z,99592.65
2022-10-19T19:05:44.226Z,99597.30
2022-10-19T19:08:51.483Z,99605.53
2022-10-19T19:12:00.465Z,99608.30
2022-10-19T19:15:00.462Z,99612.14
2022-10-19T19:18:09.158Z,99613.50
2022-10-19T19:21:16.957Z,99615.41
2022-10-19T19:24:22.703Z,99611.61
2022-10-19T19:27:32.110Z,99608.33
2022-10-19T19:30:37.037Z,99610.90
2022-10-19T19:33:42.877Z,99606.67
2022-10-19T19:36:50.579Z,99595.30
2022-10-19T19:39:57.380Z,99602.14
2022-10-19T19:43:03.763Z,99601.53
2022-10-19T19:46:18.905Z,99604.05
2022-10-19T19:49:28.022Z,99610.01
2022-10-19T19:52:40.134Z,99605.52
2022-10-19T19:55:42.529Z,99597.78
2022-10-19T19:58:49.083Z,99601.50
2022-10-19T20:01:56.298Z,99601.77
2022-10-19T20:05:01.246Z,99600.30
2022-10-19T20:08:07.481Z,99598.32
2022-10-19T20:11:23.349Z,99588.19
2022-10-19T20:14:30.464Z,99586.38
2022-10-19T20:17:36.853Z,99578.71
2022-10-19T20:20:42.704Z,99566.36
2022-10-19T20:23:47.530Z,99569.05
2022-10-19T20:26:53.410Z,99568.48
2022-10-19T20:30:02.536Z,99579.86
2022-10-19T20:33:09.032Z,99570.70
2022-10-19T20:36:23.803Z,99578.75
2022-10-19T20:39:29.995Z,99581.22
2022-10-19T20:42:35.237Z,99582.95
2022-10-19T20:45:43.494Z,99585.21
2022-10-19T20:48:50.850Z,99591.27
2022-10-19T20:51:57.470Z,99597.61
2022-10-19T20:55:04.264Z,99591.50
2022-10-19T20:58:10.868Z,99584.24
2022-10-19T21:01:28.737Z,99576.50
2022-10-19T21:04:34.638Z,99576.59
2022-10-19T21:07:41.239Z,99573.27
2022-10-19T21:10:47.814Z,99561.45
2022-10-19T21:13:53.784Z,99552.79
2022-10-19T21:17:00.748Z,99542.00
2022-10-19T21:20:06.908Z,99542.83
2022-10-19T21:23:13.826Z,99544.64
2022-10-19T21:26:19.280Z,99552.88
2022-10-19T21:29:25.735Z,99552.42
2022-10-19T21:32:32.755Z,99550.57
2022-10-19T21:35:39.192Z,99550.53
2022-10-19T21:38:45.867Z,99551.31
2022-10-19T21:41:52.463Z,99544.52
2022-10-19T21:45:01.455Z,99541.95
2022-10-19T21:48:08.583Z,99538.67
2022-10-19T21:51:13.524Z,99540.26
2022-10-19T21:54:28.657Z,99537.83
2022-10-19T21:57:34.722Z,99543.59
2022-10-19T22:00:40.832Z,99547.95
2022-10-19T22:03:46.786Z,99546.22
2022-10-19T22:06:52.138Z,99543.61
2022-10-19T22:09:58.201Z,99551.68
2022-10-19T22:13:04.139Z,99545.14
2022-10-19T22:16:02.769Z,99549.34
2022-10-19T22:19:02.532Z,99555.56
2022-10-19T22:22:08.966Z,99554.91
2022-10-19T22:25:14.624Z,99553.63
2022-10-19T22:28:19.475Z,99555.52
2022-10-19T22:31:25.529Z,99560.05
2022-10-19T22:34:32.681Z,99565.45
2022-10-19T22:37:38.325Z,99565.90
2022-10-19T22:40:44.369Z,99555.81
2022-10-19T22:43:50.204Z,99549.62
2022-10-19T22:46:56.552Z,99549.47
2022-10-19T22:50:02.385Z,99554.73
2022-10-19T22:53:02.358Z,99553.59
2022-10-19T22:55:56.955Z,99551.77
2022-10-19T22:59:02.706Z,99552.42
2022-10-19T23:02:09.001Z,99553.45
2022-10-19T23:05:14.072Z,99548.69
2022-10-19T23:08:19.606Z,99550.72
2022-10-19T23:11:25.575Z,99550.08
2022-10-19T23:14:32.008Z,99543.91
2022-10-19T23:17:38.730Z,99545.34
2022-10-19T23:20:45.068Z,99537.75
2022-10-19T23:23:50.979Z,99541.66
2022-10-19T23:26:56.820Z,99537.47
2022-10-19T23:30:03.479Z,99529.93
2022-10-19T23:33:08.806Z,99531.52
2022-10-19T23:36:29.249Z,99537.94
2022-10-19T23:39:35.876Z,99528.80
2022-10-19T23:42:41.373Z,99527.06
2022-10-19T23:45:46.886Z,99516.23
2022-10-19T23:48:53.798Z,99515.63
2022-10-19T23:52:01.126Z,99520.57
2022-10-19T23:55:07.891Z,99508.55
2022-10-19T23:58:13.374Z,99504.23
